createdAt,value
2023-04-11T00:00:01.404Z,52.32
2023-04-11T00:05:06.038Z,52.48
2023-04-11T00:10:10.454Z,52.21
2023-04-11T00:15:16.972Z,52.70
2023-04-11T00:20:20.847Z,52.90
2023-04-11T00:25:24.741Z,52.66
2023-04-11T00:30:29.677Z,52.65
2023-04-11T00:35:34.723Z,53.02
2023-04-11T00:40:38.780Z,52.63
2023-04-11T00:45:44.284Z,52.44
2023-04-11T00:50:48.232Z,52.74
2023-04-11T00:55:53.881Z,52.43
2023-04-11T01:00:58.814Z,51.92
2023-04-11T01:06:02.276Z,51.57
2023-04-11T01:11:06.749Z,51.17
2023-04-11T01:16:13.033Z,51.50
2023-04-11T01:21:19.782Z,51.33
2023-04-11T01:26:24.428Z,50.90
2023-04-11T01:31:27.588Z,50.49
2023-04-11T01:36:31.848Z,50.37
2023-04-11T01:41:37.706Z,50.41
2023-04-11T01:46:42.082Z,52.34
2023-04-11T01:51:46.092Z,55.61
2023-04-11T01:56:52.808Z,58.51
2023-04-11T02:01:56.196Z,61.92
2023-04-11T02:06:59.504Z,63.98
2023-04-11T02:12:04.560Z,65.84
2023-04-11T02:17:10.166Z,68.00
2023-04-11T02:22:14.562Z,70.01
2023-04-11T02:27:19.108Z,73.15
2023-04-11T02:32:22.432Z,75.71
2023-04-11T02:37:28.673Z,77.42
2023-04-11T02:42:33.301Z,81.06
2023-04-11T02:47:36.750Z,83.89
2023-04-11T02:52:42.326Z,85.77
2023-04-11T02:57:47.142Z,88.31
2023-04-11T03:02:50.679Z,90.45
2023-04-11T03:07:54.051Z,91.23
2023-04-11T03:12:58.847Z,94.09
2023-04-11T03:18:02.206Z,94.51
2023-04-11T03:23:05.739Z,95.54
2023-04-11T03:28:10.346Z,95.91
2023-04-11T03:33:13.661Z,96.20
2023-04-11T03:38:16.862Z,95.89
2023-04-11T03:43:21.580Z,97.51
2023-04-11T03:48:26.484Z,97.29
2023-04-11T03:53:29.935Z,97.12
2023-04-11T03:58:34.792Z,97.34
2023-04-11T04:03:38.407Z,96.96
2023-04-11T04:08:42.024Z,97.49
2023-04-11T04:13:47.877Z,97.19
2023-04-11T04:18:51.122Z,96.88
2023-04-11T04:23:55.953Z,97.35
2023-04-11T04:29:04.611Z,97.38
2023-04-11T04:34:09.720Z,97.37
2023-04-11T04:39:18.026Z,97.79
2023-04-11T04:44:23.020Z,97.93
2023-04-11T04:49:26.397Z,98.84
2023-04-11T04:54:31.636Z,99.75
2023-04-11T04:59:38.526Z,100.00
2023-04-11T05:04:42.346Z,100.00
2023-04-11T05:09:46.162Z,100.00
2023-04-11T05:14:51.186Z,100.00
2023-04-11T05:19:54.595Z,100.00
2023-04-11T05:25:00.197Z,100.00
2023-04-11T05:30:05.915Z,100.00
2023-04-11T05:35:09.687Z,100.00
2023-04-11T05:40:16.288Z,100.00
2023-04-11T05:45:21.509Z,100.00
2023-04-11T05:50:25.066Z,100.00
2023-04-11T05:55:28.819Z,100.00
2023-04-11T06:00:33.839Z,100.00
2023-04-11T06:05:37.902Z,100.00
2023-04-11T06:10:41.169Z,100.00
2023-04-11T06:15:47.003Z,100.00
2023-04-11T06:20:51.431Z,100.00
2023-04-11T06:25:54.906Z,100.00
2023-04-11T06:31:04.779Z,100.00
2023-04-11T06:36:08.810Z,100.00
2023-04-11T06:41:12.037Z,100.00
2023-04-11T06:46:17.643Z,100.00
2023-04-11T06:51:21.069Z,100.00
2023-04-11T06:56:31.783Z,100.00
2023-04-11T07:01:39.533Z,100.00
2023-04-11T07:06:43.089Z,100.00
2023-04-11T07:11:50.078Z,100.00
2023-04-11T07:17:03.927Z,100.00
2023-04-11T07:22:09.500Z,99.48
2023-04-11T07:27:14.103Z,99.55
2023-04-11T07:32:19.527Z,98.04
2023-04-11T07:37:23.844Z,98.34
2023-04-11T07:42:27.057Z,97.55
2023-04-11T07:47:32.525Z,97.28
2023-04-11T07:52:38.666Z,95.70
2023-04-11T07:57:42.131Z,93.67
2023-04-11T08:02:46.967Z,90.38
2023-04-11T08:07:50.313Z,89.03
2023-04-11T08:12:53.696Z,86.73
2023-04-11T08:17:59.962Z,78.47
2023-04-11T08:23:07.341Z,78.59
2023-04-11T08:28:12.387Z,77.87
2023-04-11T08:33:20.767Z,75.15
2023-04-11T08:38:24.391Z,72.38
2023-04-11T08:43:28.125Z,66.71
2023-04-11T08:48:33.120Z,64.96
2023-04-11T08:53:38.367Z,63.90
2023-04-11T08:58:43.626Z,62.12
2023-04-11T09:03:52.756Z,63.05
2023-04-11T09:08:56.405Z,63.13
2023-04-11T09:14:12.618Z,62.32
2023-04-11T09:19:30.338Z,61.99
2023-04-11T09:24:40.683Z,61.35
2023-04-11T09:29:45.652Z,60.50
2023-04-11T09:34:50.778Z,58.35
2023-04-11T09:40:01.003Z,56.37
2023-04-11T09:45:04.575Z,53.36
2023-04-11T09:50:10.254Z,52.49
2023-04-11T09:55:16.441Z,51.91
2023-04-11T10:00:22.000Z,52.53
2023-04-11T10:05:29.422Z,56.27
2023-04-11T10:10:34.621Z,58.50
2023-04-11T10:15:38.374Z,60.29
2023-04-11T10:20:50.471Z,61.58
2023-04-11T10:25:56.404Z,62.36
2023-04-11T10:31:09.117Z,60.72
2023-04-11T10:36:13.841Z,62.06
2023-04-11T10:41:27.384Z,61.16
2023-04-11T10:46:30.977Z,59.87
2023-04-11T10:51:35.940Z,58.43
2023-04-11T10:56:58.025Z,58.76
2023-04-11T11:02:02.693Z,58.97
2023-04-11T11:07:13.826Z,57.41
2023-04-11T11:12:17.970Z,57.78
2023-04-11T11:17:22.217Z,57.40
2023-04-11T11:22:26.945Z,58.60
2023-04-11T11:27:30.351Z,56.36
2023-04-11T11:32:33.616Z,53.89
2023-04-11T11:37:38.375Z,54.06
2023-04-11T11:42:42.328Z,53.26
2023-04-11T11:47:46.601Z,52.32
2023-04-11T11:52:51.665Z,52.38
2023-04-11T11:57:55.130Z,52.67
2023-04-11T12:03:00.935Z,52.51
2023-04-11T12:08:08.246Z,52.11
2023-04-11T12:13:17.110Z,52.09
2023-04-11T12:18:22.644Z,52.04
2023-04-11T12:23:27.412Z,51.83
2023-04-11T12:28:30.728Z,52.60
2023-04-11T12:33:33.879Z,52.61
2023-04-11T12:38:38.778Z,51.25
2023-04-11T12:43:42.128Z,50.26
2023-04-11T12:48:45.992Z,50.44
2023-04-11T12:53:52.844Z,49.45
2023-04-11T12:58:56.832Z,49.29
2023-04-11T13:04:01.027Z,49.14
2023-04-11T13:09:07.864Z,48.80
2023-04-11T13:14:11.285Z,48.44
2023-04-11T13:19:14.840Z,50.48
2023-04-11T13:24:19.765Z,49.51
2023-04-11T13:29:23.243Z,55.04
2023-04-11T13:34:26.707Z,57.25
2023-04-11T13:39:31.218Z,61.16
2023-04-11T13:44:35.347Z,61.38
2023-04-11T13:49:38.846Z,61.62
2023-04-11T13:54:43.630Z,62.25
2023-04-11T13:59:46.873Z,61.27
2023-04-11T14:04:51.145Z,60.37
2023-04-11T14:09:56.032Z,59.07
2023-04-11T14:15:02.436Z,59.17
2023-04-11T14:20:07.155Z,58.73
2023-04-11T14:25:13.562Z,58.42
2023-04-11T14:30:17.277Z,56.23
2023-04-11T14:35:21.676Z,48.91
2023-04-11T14:40:26.347Z,47.25
2023-04-11T14:45:30.577Z,48.57
2023-04-11T14:50:34.485Z,47.17
2023-04-11T14:55:42.783Z,46.62
2023-04-11T15:00:47.312Z,46.86
2023-04-11T15:05:50.641Z,45.76
2023-04-11T15:10:56.433Z,46.79
2023-04-11T15:16:01.524Z,47.47
2023-04-11T15:21:05.144Z,48.22
2023-04-11T15:26:10.039Z,46.85
2023-04-11T15:31:14.777Z,46.97
2023-04-11T15:36:18.532Z,47.98
2023-04-11T15:41:24.087Z,46.51
2023-04-11T15:46:29.351Z,44.13
2023-04-11T15:51:34.033Z,46.19
2023-04-11T15:56:41.564Z,45.15
2023-04-11T16:01:44.956Z,44.58
2023-04-11T16:06:48.184Z,45.01
2023-04-11T16:11:53.371Z,45.12
2023-04-11T16:16:57.623Z,44.87
2023-04-11T16:22:01.018Z,45.91
2023-04-11T16:27:07.296Z,45.69
2023-04-11T16:32:10.737Z,47.00
2023-04-11T16:37:14.516Z,47.31
2023-04-11T16:42:20.513Z,48.10
2023-04-11T16:47:26.995Z,48.21
2023-04-11T16:52:30.737Z,48.29
2023-04-11T16:57:35.682Z,53.29
2023-04-11T17:02:39.148Z,57.53
2023-04-11T17:07:43.884Z,60.21
2023-04-11T17:12:54.162Z,63.17
2023-04-11T17:17:57.492Z,64.49
2023-04-11T17:23:04.724Z,67.07
2023-04-11T17:28:09.806Z,68.00
2023-04-11T17:33:13.447Z,67.92
2023-04-11T17:38:18.101Z,69.19
2023-04-11T17:43:23.906Z,70.71
2023-04-11T17:48:28.856Z,70.31
2023-04-11T17:53:36.388Z,71.88
2023-04-11T17:58:46.792Z,72.13
2023-04-11T18:03:50.934Z,72.93
2023-04-11T18:08:57.619Z,73.35
2023-04-11T18:14:02.683Z,73.90
2023-04-11T18:19:11.394Z,75.71
2023-04-11T18:24:15.010Z,75.86
2023-04-11T18:29:19.917Z,76.25
2023-04-11T18:34:23.375Z,76.19
2023-04-11T18:39:26.597Z,76.72
2023-04-11T18:44:32.000Z,77.46
2023-04-11T18:49:35.712Z,78.04
2023-04-11T18:54:40.374Z,78.57
2023-04-11T18:59:49.383Z,78.79
2023-04-11T19:04:55.631Z,78.98
2023-04-11T19:09:59.972Z,78.77
2023-04-11T19:15:11.377Z,79.86
2023-04-11T19:20:15.937Z,78.51
2023-04-11T19:25:19.733Z,78.65
2023-04-11T19:30:24.716Z,78.36
2023-04-11T19:35:28.425Z,78.55
2023-04-11T19:40:32.028Z,78.82
2023-04-11T19:45:36.911Z,79.03
2023-04-11T19:50:41.310Z,78.34
2023-04-11T19:55:45.560Z,78.67
2023-04-11T20:00:50.272Z,79.59
2023-04-11T20:05:53.567Z,79.31
2023-04-11T20:10:56.886Z,78.76
2023-04-11T20:16:04.831Z,78.49
2023-04-11T20:21:09.526Z,79.58
2023-04-11T20:26:12.792Z,79.13
2023-04-11T20:31:17.553Z,80.48
2023-04-11T20:36:20.788Z,80.36
2023-04-11T20:41:24.648Z,81.31
2023-04-11T20:46:31.202Z,81.36
2023-04-11T20:51:34.728Z,81.80
2023-04-11T20:56:38.017Z,82.29
2023-04-11T21:01:44.145Z,83.20
2023-04-11T21:06:47.532Z,82.61
2023-04-11T21:11:50.765Z,82.41
2023-04-11T21:16:55.612Z,83.90
2023-04-11T21:22:00.169Z,83.43
2023-04-11T21:27:03.903Z,83.89
2023-04-11T21:32:08.549Z,84.26
2023-04-11T21:37:11.998Z,84.23
2023-04-11T21:42:15.456Z,84.55
2023-04-11T21:47:20.250Z,85.39
2023-04-11T21:52:23.707Z,85.51
2023-04-11T21:57:27.317Z,85.85
2023-04-11T22:02:32.211Z,86.07
2023-04-11T22:07:39.431Z,86.58
2023-04-11T22:12:45.862Z,86.38
2023-04-11T22:17:54.618Z,87.93
2023-04-11T22:22:59.104Z,88.50
2023-04-11T22:28:02.497Z,88.21
2023-04-11T22:33:07.508Z,89.21
2023-04-11T22:38:10.772Z,88.66
2023-04-11T22:43:13.985Z,88.71
2023-04-11T22:48:18.688Z,88.35
2023-04-11T22:53:25.382Z,88.15
2023-04-11T22:58:29.053Z,88.56
2023-04-11T23:03:33.634Z,88.88
2023-04-11T23:08:37.160Z,88.67
2023-04-11T23:13:41.229Z,88.07
2023-04-11T23:18:45.935Z,89.02
2023-04-11T23:23:49.269Z,88.14
2023-04-11T23:28:52.588Z,88.66
2023-04-11T23:33:58.292Z,89.01
2023-04-11T23:39:02.266Z,88.82
2023-04-11T23:44:06.039Z,88.33
2023-04-11T23:49:10.776Z,88.27
2023-04-11T23:54:14.038Z,88.60
2023-04-11T23:59:18.437Z,88.32
